Time;durP1;ratioP1;P1;durP2;ratioP2;P2;SDS_P1;SDS_P2;PMS_P1;PMS_P2;Temp;Humidity;BMP_temperature;BMP_pressure;BME280_temperature;BME280_humidity;BME280_pressure;Samples;Min_cycle;Max_cycle;Signal;HPM_P1;HPM_P2
2021/09/28 00:00:59;;;;;;;;;2.33;0.67;;;;;26.00;42.41;102130.03;5073801;27;45437;-67
2021/09/28 00:03:25;;;;;;;;;1.67;0.00;;;;;26.01;42.52;102137.03;5073826;27;45458;-66
2021/09/28 00:05:50;;;;;;;;;3.00;1.00;;;;;25.94;42.32;102120.91;5073088;27;45403;-66
2021/09/28 00:08:16;;;;;;;;;2.00;1.00;;;;;26.00;42.30;102138.03;5074828;28;45269;-66
2021/09/28 00:10:42;;;;;;;;;3.00;1.00;;;;;26.00;42.43;102138.88;5073589;27;45601;-67
2021/09/28 00:13:08;;;;;;;;;2.00;2.00;;;;;26.01;42.38;102137.88;5073706;27;45513;-66
2021/09/28 00:15:34;;;;;;;;;2.00;2.00;;;;;26.01;42.62;102134.38;5073553;27;46122;-67
2021/09/28 00:17:59;;;;;;;;;1.00;1.00;;;;;25.99;42.52;102136.38;5073582;28;45682;-66
2021/09/28 00:20:25;;;;;;;;;6.00;2.00;;;;;26.01;42.30;102134.38;5075613;27;45383;-66
2021/09/28 00:22:54;;;;;;;;;5.00;1.00;;;;;25.92;42.48;102122.91;5072349;28;45574;-67
2021/09/28 00:25:20;;;;;;;;;2.67;1.00;;;;;25.99;42.15;102125.72;5073196;27;47158;-66
2021/09/28 00:27:46;;;;;;;;;4.25;3.00;;;;;25.90;42.38;102111.59;5073456;27;45379;-67
2021/09/28 00:30:12;;;;;;;;;3.00;2.00;;;;;25.91;42.50;102127.44;5073563;27;45439;-67
2021/09/28 00:32:37;;;;;;;;;4.33;2.00;;;;;25.90;42.53;102124.94;5072134;28;45515;-67
2021/09/28 00:35:03;;;;;;;;;3.33;3.00;;;;;25.98;42.65;102132.03;5072697;28;47048;-66
2021/09/28 00:37:29;;;;;;;;;6.67;2.33;;;;;25.97;42.70;102141.88;5075511;27;45397;-66
2021/09/28 00:39:54;;;;;;;;;4.00;2.67;;;;;25.98;42.67;102134.72;5076870;27;45472;-67
2021/09/28 00:42:20;;;;;;;;;1.67;1.67;;;;;25.95;42.95;102131.41;5077212;27;45491;-66
2021/09/28 00:44:45;;;;;;;;;3.00;2.00;;;;;25.92;43.00;102128.25;5076976;27;46034;-66
2021/09/28 00:47:12;;;;;;;;;3.00;3.00;;;;;25.86;42.94;102119.13;5075630;28;45697;-67
2021/09/28 00:49:43;;;;;;;;;3.33;2.00;;;;;25.96;42.67;102143.75;5076689;27;45410;-66
2021/09/28 00:52:10;;;;;;;;;4.67;2.00;;;;;25.97;42.93;102133.88;5075453;28;47274;-66
2021/09/28 00:54:37;;;;;;;;;5.33;2.00;;;;;25.96;42.81;102138.41;5076317;28;46204;-67
2021/09/28 00:57:05;;;;;;;;;4.00;1.67;;;;;25.95;42.61;102142.06;5076626;27;45398;-66
2021/09/28 00:59:34;;;;;;;;;2.00;2.00;;;;;25.96;42.74;102141.06;5077945;27;45386;-67
2021/09/28 01:01:59;;;;;;;;;5.00;2.00;;;;;25.91;42.99;102137.25;5077171;28;45531;-66
2021/09/28 01:04:24;;;;;;;;;2.00;2.00;;;;;25.97;42.79;102149.88;5073300;28;46343;-67
2021/09/28 01:06:50;;;;;;;;;7.00;2.00;;;;;25.93;42.97;102140.56;5076497;27;45385;-67
2021/09/28 01:09:15;;;;;;;;;5.33;1.67;;;;;25.99;42.81;102149.72;5076571;27;45916;-67
2021/09/28 01:11:41;;;;;;;;;5.00;3.00;;;;;25.98;42.70;102148.03;5077045;27;45344;-67
2021/09/28 01:14:07;;;;;;;;;5.67;4.00;;;;;25.96;42.52;102140.22;5076023;28;46811;-66
2021/09/28 01:16:34;;;;;;;;;3.33;1.00;;;;;25.98;43.01;102142.72;5076014;27;45494;-66
2021/09/28 01:18:59;;;;;;;;;5.00;3.00;;;;;25.98;42.58;102143.56;5076248;27;45423;-66
2021/09/28 01:21:25;;;;;;;;;2.67;2.00;;;;;25.92;42.91;102126.41;5076318;27;45413;-67
2021/09/28 01:23:50;;;;;;;;;3.00;1.00;;;;;25.98;42.75;102140.88;5075637;27;46091;-66
2021/09/28 01:26:18;;;;;;;;;4.33;3.00;;;;;25.98;42.80;102132.03;5077227;28;45374;-67
2021/09/28 01:28:46;;;;;;;;;2.00;2.00;;;;;25.99;42.80;102136.38;5075826;27;45582;-67
2021/09/28 01:31:13;;;;;;;;;3.33;2.00;;;;;25.97;42.72;102133.88;5076026;27;45505;-66
2021/09/28 01:33:38;;;;;;;;;2.00;2.00;;;;;25.94;42.95;102137.72;5075800;27;47365;-66
2021/09/28 01:36:04;;;;;;;;;2.75;2.00;;;;;25.99;42.84;102139.06;5076280;27;45406;-66
2021/09/28 01:38:30;;;;;;;;;1.00;1.00;;;;;25.99;42.73;102139.88;5077604;27;45414;-67
2021/09/28 01:40:55;;;;;;;;;1.33;1.33;;;;;25.99;42.72;102139.88;5076516;28;45407;-66
2021/09/28 01:43:21;;;;;;;;;2.67;1.33;;;;;25.98;42.43;102138.22;5075525;27;45447;-66
2021/09/28 01:45:48;;;;;;;;;3.33;2.00;;;;;25.89;42.85;102123.28;5075926;27;45383;-66
2021/09/28 01:48:14;;;;;;;;;3.00;3.00;;;;;25.93;42.36;102127.25;5075800;27;45399;-66
2021/09/28 01:50:39;;;;;;;;;3.00;1.67;;;;;25.98;42.49;102138.22;5076459;27;45517;-66
2021/09/28 01:53:05;;;;;;;;;2.00;2.00;;;;;25.98;42.57;102135.56;5075185;28;46272;-67
2021/09/28 01:55:30;;;;;;;;;3.00;1.33;;;;;25.98;42.51;102135.56;5075548;27;45559;-67
2021/09/28 01:57:56;;;;;;;;;6.00;3.00;;;;;25.98;42.44;102137.38;5075381;27;45437;-67
2021/09/28 02:00:23;;;;;;;;;2.00;2.00;;;;;25.98;42.40;102135.56;5075942;27;45429;-67
2021/09/28 02:02:48;;;;;;;;;4.67;2.00;;;;;25.97;42.43;102131.22;5076028;27;46304;-67
2021/09/28 02:05:13;;;;;;;;;2.00;2.00;;;;;25.92;42.14;102121.06;5077365;28;45330;-66
2021/09/28 02:07:39;;;;;;;;;2.00;2.00;;;;;25.88;42.61;102116.28;5075547;27;45437;-67
2021/09/28 02:10:05;;;;;;;;;4.00;1.67;;;;;25.92;42.34;102114.91;5075641;27;45418;-67
2021/09/28 02:12:30;;;;;;;;;6.33;2.67;;;;;25.94;42.44;102121.72;5075008;27;47317;-67
2021/09/28 02:14:56;;;;;;;;;3.00;2.00;;;;;25.95;42.43;102118.06;5075474;27;45218;-67
2021/09/28 02:17:21;;;;;;;;;4.67;3.33;;;;;25.94;42.33;102105.72;5077559;27;45178;-67
2021/09/28 02:19:47;;;;;;;;;1.33;0.67;;;;;25.94;42.48;102116.41;5075374;27;45338;-66
2021/09/28 02:22:12;;;;;;;;;2.00;2.00;;;;;25.94;42.33;102115.59;5075326;27;45975;-66
2021/09/28 02:24:37;;;;;;;;;3.00;2.00;;;;;25.92;42.40;102118.41;5075422;27;45578;-66
2021/09/28 02:27:03;;;;;;;;;1.33;1.33;;;;;25.92;42.58;102126.41;5075101;27;46226;-67
2021/09/28 02:29:28;;;;;;;;;3.00;1.33;;;;;25.91;42.18;102116.78;5076729;27;45441;-67
2021/09/28 02:31:53;;;;;;;;;1.00;1.00;;;;;25.92;42.39;102113.06;5073756;28;45353;-67
2021/09/28 02:34:19;;;;;;;;;2.00;2.00;;;;;25.92;42.37;102120.25;5075124;27;46443;-67
2021/09/28 02:36:44;;;;;;;;;2.67;2.00;;;;;25.92;42.56;102114.91;5075364;27;45445;-67
2021/09/28 02:39:09;;;;;;;;;2.00;2.00;;;;;25.91;42.23;102103.44;5075416;27;45446;-66
2021/09/28 02:41:38;;;;;;;;;5.67;2.00;;;;;25.92;41.97;102114.91;5075473;27;45545;-66
2021/09/28 02:44:04;;;;;;;;;2.67;2.00;;;;;25.90;42.26;102104.44;5074480;27;45506;-66
2021/09/28 02:46:31;;;;;;;;;5.67;3.00;;;;;25.91;42.25;102107.94;5074660;27;45406;-66
2021/09/28 02:48:56;;;;;;;;;3.00;2.00;;;;;25.92;42.40;102109.56;5074832;27;45327;-66
2021/09/28 02:51:22;;;;;;;;;5.33;2.00;;;;;25.92;42.25;102109.56;5074771;27;45360;-66
2021/09/28 02:53:47;;;;;;;;;3.33;1.67;;;;;25.89;42.37;102099.28;5074957;27;45344;-66
2021/09/28 02:56:13;;;;;;;;;1.00;1.00;;;;;25.90;42.53;102104.44;5076657;28;45370;-67
2021/09/28 02:58:38;;;;;;;;;2.00;2.00;;;;;25.91;42.50;102102.59;5074148;27;45671;-65
2021/09/28 03:01:03;;;;;;;;;2.00;2.00;;;;;25.92;42.49;102101.56;5074298;27;46946;-67
2021/09/28 03:03:29;;;;;;;;;5.00;1.00;;;;;25.92;42.26;102098.91;5074701;27;45249;-67
2021/09/28 03:05:54;;;;;;;;;4.67;2.00;;;;;25.89;42.40;102093.97;5058842;28;45230;-67
2021/09/28 03:08:19;;;;;;;;;3.00;3.00;;;;;25.82;42.44;102083.16;5076410;27;45311;-66
2021/09/28 03:10:45;;;;;;;;;1.00;1.00;;;;;25.91;42.49;102100.78;5072310;27;46089;-66
2021/09/28 03:13:11;;;;;;;;;1.00;1.00;;;;;25.91;42.35;102105.28;5074361;27;45479;-67
2021/09/28 03:15:36;;;;;;;;;1.75;1.75;;;;;25.90;42.23;102103.59;5074580;27;45513;-67
2021/09/28 03:18:02;;;;;;;;;4.00;3.00;;;;;25.90;42.38;102111.59;5074545;28;45370;-67
2021/09/28 03:20:28;;;;;;;;;2.00;2.00;;;;;25.85;42.11;102098.81;5076046;27;45387;-66
2021/09/28 03:22:53;;;;;;;;;1.67;1.67;;;;;25.89;42.49;102105.47;5073042;27;45402;-66
2021/09/28 03:25:19;;;;;;;;;1.33;1.00;;;;;25.89;42.47;102105.47;5074170;27;45397;-66
2021/09/28 03:27:44;;;;;;;;;1.67;1.00;;;;;25.89;42.50;102105.47;5074233;27;45379;-66
2021/09/28 03:30:11;;;;;;;;;2.00;2.00;;;;;25.89;42.11;102109.97;5074368;27;46099;-66
2021/09/28 03:32:36;;;;;;;;;3.00;1.33;;;;;25.88;42.40;102103.78;5075136;28;45280;-67
2021/09/28 03:35:05;;;;;;;;;1.67;1.67;;;;;25.84;42.30;102094.50;5075387;28;45284;-67
2021/09/28 03:37:30;;;;;;;;;2.33;1.00;;;;;25.87;42.25;102102.13;5074017;27;45426;-67
2021/09/28 03:39:56;;;;;;;;;2.33;1.67;;;;;25.87;42.31;102098.66;5073722;27;46036;-67
2021/09/28 03:42:21;;;;;;;;;2.33;2.33;;;;;25.87;42.05;102098.66;5073906;27;45448;-67
2021/09/28 03:44:46;;;;;;;;;3.00;1.00;;;;;25.87;42.14;102099.44;5072834;28;45445;-67
2021/09/28 03:47:12;;;;;;;;;3.00;1.00;;;;;25.86;42.11;102097.81;5075556;27;45495;-67
2021/09/28 03:49:37;;;;;;;;;1.67;0.67;;;;;25.87;42.18;102102.13;5071773;27;47129;-67
2021/09/28 03:52:03;;;;;;;;;1.00;1.00;;;;;25.86;41.93;102100.47;5073688;27;45500;-66
2021/09/28 03:54:28;;;;;;;;;3.33;2.00;;;;;25.85;42.19;102098.81;5073830;27;47872;-66
2021/09/28 03:56:53;;;;;;;;;1.33;1.33;;;;;25.84;42.15;102094.50;5074095;27;45331;-67
2021/09/28 03:59:19;;;;;;;;;1.00;1.00;;;;;25.85;42.13;102107.63;5075484;27;46686;-67
2021/09/28 04:01:44;;;;;;;;;2.67;1.00;;;;;25.84;42.21;102102.50;5070891;28;45469;-67
2021/09/28 04:04:10;;;;;;;;;1.33;1.00;;;;;25.84;42.20;102102.50;5073939;27;45474;-67
2021/09/28 04:06:36;;;;;;;;;2.00;1.67;;;;;25.84;42.06;102103.28;5073688;27;45490;-66
2021/09/28 04:09:02;;;;;;;;;1.00;1.00;;;;;25.84;42.12;102099.81;5073385;27;45731;-66
2021/09/28 04:11:27;;;;;;;;;2.33;1.00;;;;;25.83;42.17;102096.31;5076278;27;45429;-66
2021/09/28 04:13:52;;;;;;;;;2.33;2.33;;;;;25.82;42.21;102089.31;5077634;28;45490;-66
2021/09/28 04:16:19;;;;;;;;;3.67;1.33;;;;;25.83;42.17;102088.31;5077314;27;45291;-67
2021/09/28 04:18:46;;;;;;;;;1.00;1.00;;;;;25.77;42.04;102080.19;5077130;27;46122;-66
2021/09/28 04:21:13;;;;;;;;;0.33;0.33;;;;;25.83;42.21;102096.31;5077189;27;45378;-67
2021/09/28 04:23:38;;;;;;;;;1.00;1.00;;;;;25.82;42.38;102085.81;5077597;27;45531;-66
2021/09/28 04:26:04;;;;;;;;;1.33;1.00;;;;;25.84;42.29;102092.63;5078555;28;45359;-66
2021/09/28 04:28:30;;;;;;;;;3.00;1.67;;;;;25.84;42.31;102083.81;5074921;27;45817;-66
2021/09/28 04:30:55;;;;;;;;;1.00;1.00;;;;;25.84;42.13;102094.50;5076949;27;45234;-67
2021/09/28 04:33:20;;;;;;;;;3.67;1.00;;;;;25.84;41.91;102091.81;5077450;27;45452;-66
2021/09/28 04:35:46;;;;;;;;;1.00;1.00;;;;;25.84;41.93;102091.81;5077230;27;45165;-67
2021/09/28 04:38:11;;;;;;;;;0.67;0.00;;;;;25.82;42.03;102083.16;5078475;27;46391;-67
2021/09/28 04:40:36;;;;;;;;;0.00;0.00;;;;;25.83;42.00;102092.81;5075451;28;45965;-67
2021/09/28 04:43:02;;;;;;;;;1.67;1.67;;;;;25.82;42.15;102089.31;5077034;27;45969;-67
2021/09/28 04:45:27;;;;;;;;;1.67;1.33;;;;;25.83;42.25;102092.81;5077054;27;45284;-66
2021/09/28 04:47:52;;;;;;;;;1.00;1.00;;;;;25.81;41.82;102094.84;5076750;27;46018;-66
2021/09/28 04:50:18;;;;;;;;;1.00;1.00;;;;;25.81;42.25;102090.34;5078531;28;45315;-67
2021/09/28 04:52:43;;;;;;;;;1.00;1.00;;;;;25.81;42.16;102085.00;5076407;27;45352;-66
2021/09/28 04:55:08;;;;;;;;;2.00;2.00;;;;;25.81;42.05;102086.84;5076802;27;45563;-66
2021/09/28 04:57:34;;;;;;;;;2.00;0.67;;;;;25.71;42.13;102063.84;5076518;28;45599;-66
2021/09/28 05:00:00;;;;;;;;;1.00;1.00;;;;;25.80;42.12;102079.84;5076567;27;45421;-67
2021/09/28 05:02:26;;;;;;;;;0.67;0.67;;;;;25.77;42.07;102083.69;5078768;27;45493;-67
2021/09/28 05:04:51;;;;;;;;;3.00;1.00;;;;;25.79;42.15;102086.19;5076422;27;45588;-66
2021/09/28 05:07:16;;;;;;;;;2.00;0.33;;;;;25.79;42.09;102081.66;5074195;27;46202;-66
2021/09/28 05:09:43;;;;;;;;;3.00;1.00;;;;;25.78;42.05;102073.84;5076196;27;45540;-67
2021/09/28 05:12:09;;;;;;;;;1.67;1.33;;;;;25.71;41.93;102066.53;5076611;27;45370;-67
2021/09/28 05:14:34;;;;;;;;;3.00;0.33;;;;;25.79;41.80;102083.53;5077562;28;45526;-67
2021/09/28 05:16:59;;;;;;;;;1.00;1.00;;;;;25.77;41.84;102080.19;5077052;28;45431;-66
2021/09/28 05:19:25;;;;;;;;;1.00;1.00;;;;;25.79;42.16;102083.53;5074717;27;45629;-67
2021/09/28 05:21:50;;;;;;;;;1.00;1.00;;;;;25.73;41.95;102077.03;5075443;27;45418;-67
2021/09/28 05:24:16;;;;;;;;;1.33;1.33;;;;;25.76;41.68;102074.03;5076189;27;45445;-67
2021/09/28 05:26:41;;;;;;;;;1.33;1.00;;;;;25.78;41.75;102085.34;5076272;27;46253;-67
2021/09/28 05:29:07;;;;;;;;;0.67;0.67;;;;;25.79;41.90;102092.31;5075740;28;45239;-66
2021/09/28 05:31:32;;;;;;;;;0.33;0.33;;;;;25.77;41.81;102089.00;5076238;27;45624;-67
2021/09/28 05:33:57;;;;;;;;;4.00;1.67;;;;;25.78;41.84;102093.34;5076208;27;45444;-67
2021/09/28 05:36:23;;;;;;;;;1.33;1.00;;;;;25.69;42.11;102075.69;5075662;27;47100;-67
2021/09/28 05:38:48;;;;;;;;;2.33;1.00;;;;;25.76;41.84;102091.88;5076081;27;45522;-66
2021/09/28 05:41:14;;;;;;;;;1.00;0.00;;;;;25.77;41.96;102089.00;5078190;27;45470;-66
2021/09/28 05:43:39;;;;;;;;;1.33;1.33;;;;;25.78;42.04;102092.50;5076000;27;45453;-67
2021/09/28 05:46:06;;;;;;;;;2.00;0.00;;;;;25.79;42.13;102091.53;5074023;27;45801;-67
2021/09/28 05:48:31;;;;;;;;;2.00;1.00;;;;;25.78;42.04;102080.03;5075613;27;45467;-67
2021/09/28 05:50:57;;;;;;;;;1.00;1.00;;;;;25.73;42.17;102077.03;5075710;27;45284;-67
2021/09/28 05:53:23;;;;;;;;;1.00;1.00;;;;;25.77;41.90;102083.69;5077751;27;45584;-66
2021/09/28 05:55:48;;;;;;;;;2.67;2.00;;;;;25.75;41.90;102080.38;5075610;27;46334;-67
2021/09/28 05:58:14;;;;;;;;;1.67;1.00;;;;;25.76;41.89;102079.38;5073929;28;45417;-67
2021/09/28 06:00:39;;;;;;;;;2.00;1.00;;;;;25.67;41.82;102062.56;5075515;27;45449;-66
2021/09/28 06:03:06;;;;;;;;;0.33;0.33;;;;;25.66;41.86;102057.41;5072914;27;45484;-67
2021/09/28 06:05:32;;;;;;;;;4.00;2.00;;;;;25.75;41.45;102083.03;5076532;27;46950;-67
2021/09/28 06:07:57;;;;;;;;;0.00;0.00;;;;;25.65;42.11;102063.75;5075678;28;45350;-67
2021/09/28 06:10:22;;;;;;;;;2.00;1.00;;;;;25.76;41.73;102081.22;5075307;27;45372;-66
2021/09/28 06:12:48;;;;;;;;;1.33;1.00;;;;;25.76;41.96;102075.88;5074873;27;45337;-66
2021/09/28 06:15:13;;;;;;;;;3.00;1.33;;;;;25.76;41.70;102081.22;5074881;27;45496;-67
2021/09/28 06:17:39;;;;;;;;;2.33;2.00;;;;;25.76;41.73;102075.88;5075033;27;45284;-67
2021/09/28 06:20:05;;;;;;;;;1.33;1.00;;;;;25.76;42.06;102083.88;5076146;28;45261;-67
2021/09/28 06:22:30;;;;;;;;;2.67;1.00;;;;;25.75;41.86;102088.38;5074746;27;45685;-66
2021/09/28 06:24:56;;;;;;;;;0.00;0.00;;;;;25.74;41.65;102084.03;5073113;27;47301;-66
2021/09/28 06:27:23;;;;;;;;;1.67;1.00;;;;;25.76;41.79;102089.19;5075100;27;45620;-65
2021/09/28 06:29:49;;;;;;;;;1.00;1.00;;;;;25.75;41.99;102085.69;5075503;27;45488;-65
2021/09/28 06:32:16;;;;;;;;;1.00;1.00;;;;;25.77;41.89;102082.84;5076989;28;45454;-65
2021/09/28 06:34:42;;;;;;;;;3.33;1.33;;;;;25.76;41.68;102079.38;5073624;27;46993;-65
2021/09/28 06:37:08;;;;;;;;;2.00;1.00;;;;;25.76;41.56;102081.22;5073294;27;45387;-65
2021/09/28 06:39:33;;;;;;;;;1.33;0.00;;;;;25.68;41.82;102069.56;5074970;27;45472;-65
2021/09/28 06:41:59;;;;;;;;;2.33;1.00;;;;;25.76;41.44;102078.53;5074858;27;45211;-65
2021/09/28 06:44:24;;;;;;;;;0.67;0.67;;;;;25.76;41.62;102078.53;5072313;28;47276;-65
2021/09/28 06:46:50;;;;;;;;;3.00;1.00;;;;;25.76;41.56;102073.22;5074325;28;45406;-65
2021/09/28 06:49:15;;;;;;;;;0.67;0.67;;;;;25.74;41.56;102081.38;5071603;28;45400;-65
2021/09/28 06:51:40;;;;;;;;;1.00;1.00;;;;;25.76;41.60;102075.88;5074816;27;45342;-65
2021/09/28 06:54:06;;;;;;;;;2.67;1.67;;;;;25.76;41.41;102081.22;5074781;27;47279;-65
2021/09/28 06:56:31;;;;;;;;;1.00;1.00;;;;;25.76;41.59;102079.38;5076175;27;45438;-65
2021/09/28 06:58:58;;;;;;;;;1.00;1.00;;;;;25.76;41.46;102086.53;5075282;28;45868;-66
2021/09/28 07:01:23;;;;;;;;;1.00;1.00;;;;;25.76;41.49;102073.22;5074741;27;45498;-65
2021/09/28 07:03:48;;;;;;;;;2.00;1.00;;;;;25.73;41.48;102069.91;5072321;27;46081;-66
2021/09/28 07:06:14;;;;;;;;;6.00;1.00;;;;;25.76;41.40;102081.22;5074474;27;45450;-66
2021/09/28 07:08:39;;;;;;;;;4.00;0.00;;;;;25.76;41.53;102082.03;5075186;27;45327;-65
2021/09/28 07:11:04;;;;;;;;;2.00;1.00;;;;;25.77;41.37;102081.03;5076102;28;45326;-65
2021/09/28 07:13:30;;;;;;;;;0.33;0.33;;;;;25.77;41.47;102069.53;5074347;27;45615;-66
2021/09/28 07:15:55;;;;;;;;;1.00;1.00;;;;;25.78;41.42;102073.84;5072883;27;45217;-65
2021/09/28 07:18:20;;;;;;;;;1.67;1.00;;;;;25.75;41.44;102059.03;5074205;27;45332;-65
2021/09/28 07:20:46;;;;;;;;;2.00;1.00;;;;;25.75;41.64;102067.03;5074637;27;45257;-65
2021/09/28 07:23:12;;;;;;;;;2.00;2.00;;;;;25.72;41.32;102057.53;5076248;28;46724;-65
2021/09/28 07:25:37;;;;;;;;;3.67;2.00;;;;;25.74;41.28;102060.03;5074131;27;45608;-65
2021/09/28 07:28:03;;;;;;;;;0.67;0.67;;;;;25.76;41.17;102059.88;5074216;27;45477;-65
2021/09/28 07:30:30;;;;;;;;;2.00;2.00;;;;;25.77;41.29;102057.03;5074294;27;45323;-66
2021/09/28 07:32:55;;;;;;;;;0.00;0.00;;;;;25.78;41.25;102063.19;5056649;28;45414;-65
2021/09/28 07:35:21;;;;;;;;;1.33;1.33;;;;;25.77;41.29;102059.69;5075795;28;45318;-65
2021/09/28 07:37:46;;;;;;;;;1.00;1.00;;;;;25.70;41.45;102042.72;5074151;27;45453;-65
2021/09/28 07:40:12;;;;;;;;;0.67;0.67;;;;;25.78;41.36;102066.69;5074091;27;45479;-65
2021/09/28 07:42:38;;;;;;;;;1.00;1.00;;;;;25.78;41.35;102063.19;5072382;27;45463;-65
2021/09/28 07:45:04;;;;;;;;;2.00;2.00;;;;;25.73;41.24;102059.22;5073609;27;45489;-65
2021/09/28 07:47:30;;;;;;;;;2.33;2.00;;;;;25.79;41.33;102063.00;5073904;28;45532;-65
2021/09/28 07:49:56;;;;;;;;;3.00;1.00;;;;;25.80;41.46;102070.00;5073095;28;45372;-65
2021/09/28 07:52:22;;;;;;;;;2.33;1.00;;;;;25.80;40.99;102070.00;5073485;27;46166;-65
2021/09/28 07:54:47;;;;;;;;;0.00;0.00;;;;;25.83;41.20;102071.50;5072388;27;45307;-65
2021/09/28 07:57:12;;;;;;;;;4.33;2.67;;;;;25.84;41.14;102068.63;5073978;27;45271;-65
2021/09/28 07:59:38;;;;;;;;;1.00;1.00;;;;;25.87;41.09;102071.97;5074443;28;45399;-66
2021/09/28 08:02:05;;;;;;;;;1.33;1.33;;;;;25.77;41.23;102053.53;5074846;28;46148;-66
2021/09/28 08:04:30;;;;;;;;;1.00;1.00;;;;;25.89;41.18;102070.78;5073675;27;45383;-66
2021/09/28 08:06:56;;;;;;;;;3.00;3.00;;;;;25.90;41.02;102075.09;5073575;27;45342;-66
2021/09/28 08:09:21;;;;;;;;;1.00;1.00;;;;;25.93;40.83;102077.44;5074057;27;45434;-65
2021/09/28 08:11:47;;;;;;;;;2.00;1.00;;;;;25.94;40.83;102071.06;5073692;27;45996;-65
2021/09/28 08:14:13;;;;;;;;;1.00;1.00;;;;;25.97;40.83;102069.88;5073799;28;45501;-65
2021/09/28 08:16:39;;;;;;;;;1.67;1.33;;;;;25.99;40.80;102059.91;5073132;28;45338;-65
2021/09/28 08:19:05;;;;;;;;;0.00;0.00;;;;;26.00;40.77;102058.03;5073681;27;45282;-65
2021/09/28 08:21:30;;;;;;;;;3.00;3.00;;;;;26.02;40.70;102064.03;5071635;27;46971;-65
2021/09/28 08:23:56;;;;;;;;;2.00;2.00;;;;;26.04;40.80;102062.03;5057429;28;45348;-66
2021/09/28 08:29:09;;;;;;;;;3.00;1.00;;;;;26.05;40.72;102051.16;5073415;27;45433;-65
2021/09/28 08:31:36;;;;;;;;;1.00;1.00;;;;;26.06;40.65;102049.34;5073317;27;45374;-65
2021/09/28 08:34:03;;;;;;;;;1.00;1.00;;;;;26.05;40.76;102061.00;5071997;27;45422;-65
2021/09/28 08:36:29;;;;;;;;;5.00;2.00;;;;;26.11;40.76;102075.47;5073385;28;45528;-66
2021/09/28 08:38:54;;;;;;;;;1.00;1.00;;;;;26.07;40.73;102061.66;5073466;27;45536;-65
2021/09/28 08:41:21;;;;;;;;;2.33;1.00;;;;;26.13;40.62;102065.44;5074986;27;46009;-65
2021/09/28 08:43:47;;;;;;;;;3.00;1.00;;;;;26.14;40.88;102067.94;5073017;27;45425;-65
2021/09/28 08:46:15;;;;;;;;;4.00;2.67;;;;;26.16;40.55;102079.25;5073185;28;45389;-65
2021/09/28 08:48:42;;;;;;;;;4.00;1.00;;;;;26.17;40.96;102067.59;5070104;28;45431;-65
2021/09/28 08:51:07;;;;;;;;;2.00;2.00;;;;;26.18;40.65;102069.22;5073130;28;46294;-65
2021/09/28 08:53:33;;;;;;;;;0.33;0.33;;;;;26.18;40.56;102065.72;5074569;27;45327;-65
2021/09/28 08:55:58;;;;;;;;;1.00;1.00;;;;;26.17;40.23;102056.94;5073857;28;45575;-65
2021/09/28 08:58:25;;;;;;;;;3.67;3.67;;;;;26.21;40.54;102061.88;5074967;27;45415;-66
2021/09/28 09:01:03;;;;;;;;;2.00;2.00;;;;;26.18;40.32;102055.91;5074576;27;46232;-65
2021/09/28 09:03:32;;;;;;;;;3.67;1.00;;;;;26.24;40.61;102062.34;5076477;27;45537;-66
2021/09/28 09:05:58;;;;;;;;;4.00;1.00;;;;;26.24;40.74;102059.69;5060418;28;45562;-65
2021/09/28 09:08:26;;;;;;;;;3.33;2.00;;;;;26.24;40.38;102062.34;5073939;28;45336;-65
2021/09/28 09:11:11;;;;;;;;;3.00;2.67;;;;;26.25;40.33;102052.53;5076067;28;46059;-65
2021/09/28 09:13:41;;;;;;;;;1.00;1.00;;;;;26.25;40.39;102053.34;5074338;27;45423;-65
2021/09/28 09:16:10;;;;;;;;;1.00;1.00;;;;;26.28;40.38;102055.66;5076181;28;45324;-65
2021/09/28 09:18:36;;;;;;;;;1.00;1.00;;;;;26.28;40.31;102050.31;5076202;27;45391;-65
2021/09/28 09:21:04;;;;;;;;;1.00;1.00;;;;;26.31;40.36;102059.78;5076315;27;46310;-65
2021/09/28 09:23:37;;;;;;;;;1.67;1.67;;;;;26.34;40.36;102053.25;5077909;27;45452;-65
2021/09/28 09:26:10;;;;;;;;;1.00;1.00;;;;;26.35;40.49;102053.09;5075868;27;45410;-65
2021/09/28 09:28:43;;;;;;;;;1.00;1.00;;;;;26.36;40.34;102054.75;5075412;27;45339;-65
2021/09/28 09:31:14;;;;;;;;;4.33;1.67;;;;;26.38;40.22;102050.06;5086587;27;46287;-65
2021/09/28 09:33:39;;;;;;;;;1.33;1.00;;;;;26.39;40.23;102049.06;5075899;27;45332;-65
2021/09/28 09:36:05;;;;;;;;;2.00;2.00;;;;;26.40;40.20;102045.38;5076384;27;45383;-66
2021/09/28 09:38:40;;;;;;;;;2.33;2.00;;;;;26.40;40.11;102048.06;5077206;28;45454;-65
2021/09/28 09:41:05;;;;;;;;;2.00;1.00;;;;;26.42;40.07;102039.84;5077309;28;46482;-65
2021/09/28 09:43:33;;;;;;;;;3.00;1.00;;;;;26.43;40.36;102038.03;5075450;27;45422;-65
2021/09/28 09:46:18;;;;;;;;;1.33;1.33;;;;;26.43;40.28;102030.84;5077492;27;45317;-66
2021/09/28 09:48:46;;;;;;;;;1.00;1.00;;;;;26.45;39.82;102022.69;5077336;27;45391;-65
2021/09/28 09:51:16;;;;;;;;;3.00;2.00;;;;;26.44;40.01;102021.84;5074662;27;45988;-63
2021/09/28 09:54:00;;;;;;;;;1.67;1.67;;;;;26.36;40.12;101997.91;5075897;27;45406;-66
2021/09/28 09:56:47;;;;;;;;;1.00;1.00;;;;;26.46;39.95;102014.50;5071966;28;45465;-65
2021/09/28 09:59:14;;;;;;;;;0.00;0.00;;;;;26.46;40.05;102011.00;5075803;28;45376;-66
2021/09/28 10:01:39;;;;;;;;;1.00;1.00;;;;;26.43;39.87;102006.84;5075528;27;46288;-66
2021/09/28 10:04:13;;;;;;;;;2.00;0.67;;;;;26.48;40.12;102000.97;5072367;28;45323;-65
2021/09/28 10:06:39;;;;;;;;;3.00;2.33;;;;;26.47;39.69;101997.47;5075646;27;45404;-65
2021/09/28 10:09:07;;;;;;;;;1.33;1.00;;;;;26.38;40.05;101983.38;5075512;28;45563;-66
2021/09/28 10:11:36;;;;;;;;;2.67;1.00;;;;;26.48;39.81;102004.47;5076687;27;46179;-65
2021/09/28 10:14:03;;;;;;;;;2.00;1.00;;;;;26.47;40.07;101997.47;5076477;28;45335;-66
2021/09/28 10:16:41;;;;;;;;;2.00;2.00;;;;;26.50;39.95;102005.13;5075507;27;45394;-65
2021/09/28 10:19:29;;;;;;;;;1.00;1.00;;;;;26.51;39.73;102000.63;5073437;27;45280;-65
2021/09/28 10:21:59;;;;;;;;;1.00;1.00;;;;;26.51;39.98;101995.28;5075137;28;47123;-65
2021/09/28 10:24:29;;;;;;;;;1.33;1.33;;;;;26.51;39.73;101993.44;5075091;27;45641;-65
2021/09/28 10:27:00;;;;;;;;;1.00;1.00;;;;;26.51;40.07;101998.78;5057873;28;45284;-65
2021/09/28 10:29:41;;;;;;;;;3.67;1.00;;;;;26.44;40.13;101984.50;5071699;28;45343;-65
2021/09/28 10:32:21;;;;;;;;;2.33;1.00;;;;;26.52;39.83;101980.91;5076837;28;46178;-65
2021/09/28 10:35:06;;;;;;;;;1.00;1.00;;;;;26.51;39.94;101974.78;5075012;27;45434;-65
2021/09/28 10:37:49;;;;;;;;;3.67;2.33;;;;;26.51;40.04;101968.59;5075037;27;45552;-65
2021/09/28 10:40:15;;;;;;;;;2.33;1.00;;;;;26.51;39.92;101966.75;5074851;27;45377;-66
2021/09/28 10:42:58;;;;;;;;;2.00;0.67;;;;;26.51;40.07;101960.59;5074904;28;45524;-65
2021/09/28 10:45:33;;;;;;;;;2.00;0.67;;;;;26.52;39.83;101951.56;5075258;27;45466;-65
2021/09/28 10:48:11;;;;;;;;;1.00;1.00;;;;;26.51;39.72;101950.75;5059032;28;45279;-65
2021/09/28 10:50:42;;;;;;;;;3.00;2.00;;;;;26.50;39.98;101953.59;5073252;28;45406;-65
2021/09/28 10:53:20;;;;;;;;;1.00;1.00;;;;;26.49;39.82;101951.94;5076367;28;47297;-65
2021/09/28 10:56:00;;;;;;;;;1.67;1.00;;;;;26.47;39.98;101941.44;5074335;27;45378;-65
2021/09/28 10:58:28;;;;;;;;;3.00;2.00;;;;;26.47;39.71;101940.59;5072616;27;45580;-65
2021/09/28 11:00:56;;;;;;;;;1.00;1.00;;;;;26.46;39.86;101936.31;5074475;27;45513;-64
2021/09/28 11:03:48;;;;;;;;;4.67;1.00;;;;;26.44;39.68;101925.00;5074646;27;46232;-65
2021/09/28 11:06:16;;;;;;;;;1.00;1.00;;;;;26.43;39.85;101928.63;5060712;28;45412;-64
2021/09/28 11:08:41;;;;;;;;;3.67;1.00;;;;;26.43;39.85;101926.78;5075311;27;45352;-65
2021/09/28 11:11:09;;;;;;;;;1.67;1.67;;;;;26.43;39.64;101928.63;5074214;28;45322;-65
2021/09/28 11:13:38;;;;;;;;;1.67;1.00;;;;;26.42;39.80;101917.13;5072957;28;46922;-64
2021/09/28 11:16:07;;;;;;;;;2.00;2.00;;;;;26.40;40.06;101922.66;5074130;28;45528;-64
2021/09/28 11:18:32;;;;;;;;;3.00;1.00;;;;;26.40;40.07;101911.97;5074311;27;45466;-64
2021/09/28 11:21:12;;;;;;;;;2.67;2.00;;;;;26.39;39.80;101904.97;5073931;27;45585;-66
2021/09/28 11:23:39;;;;;;;;;1.00;1.00;;;;;26.33;39.63;101888.88;5072261;28;46143;-65
2021/09/28 11:26:05;;;;;;;;;2.00;2.00;;;;;26.39;39.79;101910.31;5075570;28;45479;-66